createdAt,value
2022-10-11T00:00:18.862Z,76.02
2022-10-11T00:02:45.910Z,76.08
2022-10-11T00:05:12.841Z,76.05
2022-10-11T00:07:39.842Z,76.51
2022-10-11T00:10:08.438Z,76.03
2022-10-11T00:12:36.936Z,75.99
2022-10-11T00:15:06.737Z,75.69
2022-10-11T00:17:34.273Z,75.56
2022-10-11T00:20:01.452Z,76.26
2022-10-11T00:22:28.373Z,75.72
2022-10-11T00:24:55.454Z,76.20
2022-10-11T00:27:22.470Z,75.73
2022-10-11T00:29:49.471Z,75.52
2022-10-11T00:32:16.644Z,75.14
2022-10-11T00:34:43.660Z,75.89
2022-10-11T00:37:10.573Z,75.33
2022-10-11T00:39:37.582Z,75.11
2022-10-11T00:42:05.067Z,75.12
2022-10-11T00:44:33.624Z,75.20
2022-10-11T00:47:10.379Z,75.14
2022-10-11T00:49:44.209Z,75.50
2022-10-11T00:54:58.696Z,75.62
2022-10-11T00:57:30.277Z,75.41
2022-10-11T00:59:58.886Z,75.88
2022-10-11T01:02:26.470Z,75.60
2022-10-11T01:05:11.312Z,74.93
2022-10-11T01:07:43.262Z,75.54
2022-10-11T01:10:10.659Z,75.38
2022-10-11T01:12:54.743Z,75.21
2022-10-11T01:15:36.128Z,75.57
2022-10-11T01:18:24.908Z,75.04
2022-10-11T01:21:24.250Z,75.14
2022-10-11T01:24:34.256Z,75.03
2022-10-11T01:27:25.659Z,75.62
2022-10-11T01:30:23.329Z,75.34
2022-10-11T01:33:32.906Z,75.84
2022-10-11T01:36:27.698Z,75.82
2022-10-11T01:39:10.734Z,75.34
2022-10-11T01:41:44.142Z,75.40
2022-10-11T01:44:13.256Z,75.46
2022-10-11T01:46:41.046Z,75.58
2022-10-11T01:49:08.876Z,75.79
2022-10-11T01:51:47.099Z,75.74
2022-10-11T01:55:08.170Z,75.67
2022-10-11T01:58:11.790Z,75.71
2022-10-11T02:00:53.317Z,75.77
2022-10-11T02:03:23.034Z,76.04
2022-10-11T02:06:20.802Z,76.10
2022-10-11T02:08:53.482Z,76.26
2022-10-11T02:11:33.426Z,76.21
2022-10-11T02:14:09.728Z,76.73
2022-10-11T02:16:46.183Z,76.27
2022-10-11T02:19:17.262Z,76.60
2022-10-11T02:21:48.116Z,76.48
2022-10-11T02:24:25.255Z,76.79
2022-10-11T02:26:56.012Z,76.45
2022-10-11T02:29:27.549Z,76.26
2022-10-11T02:31:57.373Z,76.63
2022-10-11T02:34:40.253Z,76.57
2022-10-11T02:37:33.041Z,76.33
2022-10-11T02:40:28.282Z,76.74
2022-10-11T02:43:08.014Z,76.80
2022-10-11T02:45:41.350Z,76.70
2022-10-11T02:48:11.577Z,76.85
2022-10-11T02:50:42.911Z,77.13
2022-10-11T02:53:10.109Z,76.66
2022-10-11T02:55:37.337Z,77.04
2022-10-11T02:58:04.516Z,77.21
2022-10-11T03:00:31.734Z,76.96
2022-10-11T03:02:58.746Z,77.29
2022-10-11T03:05:25.945Z,77.23
2022-10-11T03:07:53.040Z,77.42
2022-10-11T03:10:19.984Z,77.26
2022-10-11T03:12:47.008Z,77.48
2022-10-11T03:15:13.978Z,77.63
2022-10-11T03:17:40.947Z,77.39
2022-10-11T03:20:08.613Z,77.58
2022-10-11T03:22:35.836Z,77.55
2022-10-11T03:25:04.648Z,77.23
2022-10-11T03:27:34.290Z,77.33
2022-10-11T03:30:02.041Z,77.56
2022-10-11T03:32:29.582Z,77.28
2022-10-11T03:34:57.017Z,77.14
2022-10-11T03:37:25.497Z,76.93
2022-10-11T03:39:52.852Z,77.07
2022-10-11T03:42:20.054Z,77.11
2022-10-11T03:44:49.551Z,76.95
2022-10-11T03:47:17.201Z,76.85
2022-10-11T03:49:44.202Z,76.92
2022-10-11T03:52:11.929Z,76.76
2022-10-11T03:54:39.043Z,76.38
2022-10-11T03:57:06.596Z,76.91
2022-10-11T03:59:33.611Z,77.12
2022-10-11T04:02:00.760Z,76.90
2022-10-11T04:04:27.967Z,77.58
2022-10-11T04:06:55.101Z,77.38
2022-10-11T04:09:22.145Z,77.51
2022-10-11T04:11:49.166Z,77.88
2022-10-11T04:14:17.192Z,77.99
2022-10-11T04:16:44.255Z,77.58
2022-10-11T04:19:11.294Z,78.26
2022-10-11T04:21:38.325Z,78.42
2022-10-11T04:24:06.102Z,78.27
2022-10-11T04:26:33.738Z,78.27
2022-10-11T04:29:00.881Z,78.10
2022-10-11T04:31:27.857Z,78.96
2022-10-11T04:33:54.848Z,78.31
2022-10-11T04:36:21.918Z,78.58
2022-10-11T04:38:49.766Z,79.16
2022-10-11T04:41:17.027Z,78.95
2022-10-11T04:43:43.939Z,78.53
2022-10-11T04:46:11.558Z,78.51
2022-10-11T04:48:39.092Z,79.51
2022-10-11T04:51:06.265Z,78.79
2022-10-11T04:53:34.400Z,79.00
2022-10-11T04:56:11.057Z,78.84
2022-10-11T04:58:41.146Z,78.77
2022-10-11T05:01:09.460Z,79.43
2022-10-11T05:03:37.806Z,79.63
2022-10-11T05:06:06.207Z,80.28
2022-10-11T05:08:34.297Z,80.36
2022-10-11T05:11:08.259Z,80.25
2022-10-11T05:13:36.220Z,80.18
2022-10-11T05:16:09.558Z,80.66
2022-10-11T05:18:38.377Z,80.26
2022-10-11T05:21:09.251Z,80.05
2022-10-11T05:23:37.277Z,80.89
2022-10-11T05:26:05.257Z,81.11
2022-10-11T05:28:33.349Z,80.90
2022-10-11T05:31:00.789Z,81.49
2022-10-11T05:33:27.997Z,81.35
2022-10-11T05:35:55.435Z,80.89
2022-10-11T05:38:23.097Z,80.71
2022-10-11T05:40:50.457Z,81.28
2022-10-11T05:43:18.720Z,81.30
2022-10-11T05:45:46.674Z,81.66
2022-10-11T05:48:14.152Z,81.55
2022-10-11T05:50:41.313Z,81.33
2022-10-11T05:53:08.415Z,80.92
2022-10-11T05:55:40.542Z,81.14
2022-10-11T05:58:11.118Z,81.28
2022-10-11T06:00:38.362Z,81.42
2022-10-11T06:03:07.943Z,81.29
2022-10-11T06:05:36.203Z,81.81
2022-10-11T06:08:06.662Z,81.81
2022-10-11T06:10:34.538Z,81.86
2022-10-11T06:13:01.747Z,82.11
2022-10-11T06:15:29.413Z,82.69
2022-10-11T06:17:57.950Z,82.18
2022-10-11T06:20:27.012Z,82.33
2022-10-11T06:22:56.061Z,81.96
2022-10-11T06:25:23.209Z,82.43
2022-10-11T06:27:50.330Z,82.34
2022-10-11T06:30:18.132Z,82.36
2022-10-11T06:32:45.319Z,82.70
2022-10-11T06:35:12.520Z,82.43
2022-10-11T06:37:39.664Z,83.28
2022-10-11T06:40:07.594Z,83.37
2022-10-11T06:42:34.629Z,83.50
2022-10-11T06:45:01.780Z,84.13
2022-10-11T06:47:29.278Z,83.42
2022-10-11T06:49:56.567Z,83.93
2022-10-11T06:52:25.314Z,84.36
2022-10-11T06:54:52.454Z,84.18
2022-10-11T06:57:19.958Z,84.08
2022-10-11T06:59:47.052Z,84.59
2022-10-11T07:02:14.125Z,85.05
2022-10-11T07:04:41.265Z,85.13
2022-10-11T07:07:08.490Z,84.39
2022-10-11T07:09:35.720Z,84.54
2022-10-11T07:12:02.854Z,85.14
2022-10-11T07:14:30.144Z,85.38
2022-10-11T07:16:57.662Z,85.55
2022-10-11T07:19:24.999Z,85.64
2022-10-11T07:21:52.159Z,85.80
2022-10-11T07:24:19.212Z,85.40
2022-10-11T07:26:46.380Z,85.58
2022-10-11T07:29:13.799Z,85.25
2022-10-11T07:31:43.607Z,85.36
2022-10-11T07:34:11.264Z,85.75
2022-10-11T07:36:38.321Z,85.65
2022-10-11T07:39:08.346Z,85.95
2022-10-11T07:41:38.160Z,86.25
2022-10-11T07:44:08.011Z,86.35
2022-10-11T07:46:35.148Z,85.98
2022-10-11T07:49:02.387Z,86.19
2022-10-11T07:51:29.422Z,85.99
2022-10-11T07:53:57.326Z,86.10
2022-10-11T07:56:28.230Z,86.01
2022-10-11T07:59:01.566Z,86.62
2022-10-11T08:01:30.155Z,86.55
2022-10-11T08:03:57.793Z,86.47
2022-10-11T08:06:31.734Z,86.81
2022-10-11T08:09:00.629Z,86.96
2022-10-11T08:11:35.835Z,86.85
2022-10-11T08:14:08.638Z,86.78
2022-10-11T08:16:37.609Z,86.63
2022-10-11T08:19:05.977Z,86.44
2022-10-11T08:21:34.033Z,86.31
2022-10-11T08:24:03.814Z,86.50
2022-10-11T08:26:32.462Z,86.52
2022-10-11T08:29:04.355Z,86.03
2022-10-11T08:31:33.457Z,86.40
2022-10-11T08:34:00.591Z,85.71
2022-10-11T08:36:28.051Z,86.50
2022-10-11T08:38:55.090Z,86.50
2022-10-11T08:41:26.995Z,86.06
2022-10-11T08:45:05.592Z,85.97
2022-10-11T08:47:31.553Z,86.54
2022-10-11T08:50:00.003Z,86.64
2022-10-11T08:52:49.222Z,86.59
2022-10-11T08:55:45.869Z,86.15
2022-10-11T08:58:18.439Z,86.17
2022-10-11T09:00:51.855Z,86.38
2022-10-11T09:03:44.176Z,86.37
2022-10-11T09:06:50.539Z,86.50
2022-10-11T09:09:49.758Z,86.54
2022-10-11T09:12:57.356Z,86.45
2022-10-11T09:15:55.711Z,86.86
2022-10-11T09:18:42.772Z,86.63
2022-10-11T09:21:52.808Z,87.13
2022-10-11T09:24:57.319Z,87.21
2022-10-11T09:27:50.378Z,86.94
2022-10-11T09:30:21.200Z,86.81
2022-10-11T09:33:33.818Z,86.57
2022-10-11T09:36:04.563Z,86.51
2022-10-11T09:39:08.062Z,86.48
2022-10-11T09:41:58.025Z,86.22
2022-10-11T09:44:28.875Z,86.37
2022-10-11T09:46:57.866Z,85.50
2022-10-11T09:49:41.234Z,85.53
2022-10-11T09:52:23.821Z,85.25
2022-10-11T09:55:02.800Z,85.60
2022-10-11T09:57:39.460Z,85.34
2022-10-11T10:00:22.087Z,85.09
2022-10-11T10:02:57.997Z,84.37
2022-10-11T10:05:37.551Z,83.88
2022-10-11T10:08:10.370Z,84.35
2022-10-11T10:10:45.261Z,83.83
2022-10-11T10:13:36.175Z,83.87
2022-10-11T10:16:04.467Z,83.92
2022-10-11T10:18:42.234Z,83.38
2022-10-11T10:21:15.327Z,83.73
2022-10-11T10:23:43.433Z,83.18
2022-10-11T10:26:20.281Z,83.01
2022-10-11T10:29:16.825Z,82.89
2022-10-11T10:32:13.253Z,82.92
2022-10-11T10:35:07.614Z,82.28
2022-10-11T10:38:02.983Z,81.78
2022-10-11T10:40:48.520Z,81.70
2022-10-11T10:43:22.397Z,81.62
2022-10-11T10:46:11.758Z,81.46
2022-10-11T10:49:52.045Z,81.11
2022-10-11T10:53:04.138Z,81.34
2022-10-11T10:55:42.492Z,81.35
2022-10-11T10:58:38.388Z,81.20
2022-10-11T11:01:27.688Z,80.04
2022-10-11T11:04:09.887Z,80.20
2022-10-11T11:06:59.664Z,79.01
2022-10-11T11:09:47.762Z,79.20
2022-10-11T11:13:08.534Z,78.50
2022-10-11T11:16:00.929Z,77.97
2022-10-11T11:18:39.081Z,77.79
2022-10-11T11:21:20.461Z,76.07
2022-10-11T11:24:22.179Z,75.46
2022-10-11T11:27:01.648Z,74.76
2022-10-11T11:30:06.091Z,74.72
2022-10-11T11:33:08.363Z,74.87
2022-10-11T11:35:47.805Z,73.86
2022-10-11T11:38:42.164Z,72.69
2022-10-11T11:41:19.901Z,71.24
2022-10-11T11:44:12.155Z,71.34
2022-10-11T11:47:06.342Z,70.50
2022-10-11T11:49:41.858Z,70.77
2022-10-11T11:52:23.078Z,70.08
2022-10-11T11:55:26.133Z,69.36
2022-10-11T11:58:08.041Z,67.31
2022-10-11T12:00:59.129Z,66.15
2022-10-11T12:03:32.749Z,65.19
2022-10-11T12:06:14.952Z,64.14
2022-10-11T12:08:47.045Z,64.53
2022-10-11T12:11:38.271Z,62.96
2022-10-11T12:14:36.243Z,62.76
2022-10-11T12:17:13.433Z,62.15
2022-10-11T12:19:58.745Z,61.86
2022-10-11T12:22:28.585Z,62.58
2022-10-11T12:25:13.790Z,62.61
2022-10-11T12:27:47.678Z,63.23
2022-10-11T12:30:50.778Z,62.22
2022-10-11T12:33:22.965Z,62.50
2022-10-11T12:35:52.894Z,61.47
2022-10-11T12:38:35.784Z,60.96
2022-10-11T12:41:16.862Z,61.09
2022-10-11T12:43:50.061Z,60.11
2022-10-11T12:46:29.667Z,59.72
2022-10-11T12:49:33.712Z,58.62
2022-10-11T12:52:24.858Z,59.07
2022-10-11T12:55:27.120Z,58.29
2022-10-11T12:58:12.808Z,57.77
2022-10-11T13:00:40.109Z,57.95
2022-10-11T13:03:44.029Z,57.53
2022-10-11T13:06:28.373Z,56.73
2022-10-11T13:09:39.383Z,56.45
2022-10-11T13:12:13.877Z,56.34
2022-10-11T13:14:50.891Z,56.68
2022-10-11T13:17:38.193Z,57.27
2022-10-11T13:20:31.303Z,57.58
2022-10-11T13:22:58.714Z,55.15
2022-10-11T13:25:28.838Z,55.31
2022-10-11T13:28:01.425Z,55.68
2022-10-11T13:30:34.730Z,55.17
2022-10-11T13:33:08.702Z,55.46
2022-10-11T13:35:38.600Z,55.34
2022-10-11T13:38:09.340Z,54.86
2022-10-11T13:40:38.204Z,54.68
2022-10-11T13:43:05.942Z,54.25
2022-10-11T13:45:35.855Z,54.28
2022-10-11T13:48:03.226Z,53.80
2022-10-11T13:50:33.661Z,54.36
2022-10-11T13:53:11.679Z,54.35
2022-10-11T13:55:56.710Z,54.74
2022-10-11T13:58:32.571Z,54.62
2022-10-11T14:01:08.378Z,54.21
2022-10-11T14:03:47.312Z,53.22
2022-10-11T14:06:14.523Z,53.06
2022-10-11T14:08:48.610Z,52.66
2022-10-11T14:11:16.536Z,52.52
2022-10-11T14:13:52.419Z,52.69
2022-10-11T14:16:19.505Z,52.34
2022-10-11T14:19:00.111Z,52.29
2022-10-11T14:21:45.937Z,52.41
2022-10-11T14:24:14.701Z,52.45
2022-10-11T14:26:44.980Z,52.43
2022-10-11T14:29:25.077Z,53.27
2022-10-11T14:31:56.369Z,53.64
2022-10-11T14:34:25.959Z,53.42
2022-10-11T14:36:53.888Z,53.66
2022-10-11T14:39:27.681Z,53.75
2022-10-11T14:41:54.768Z,54.19
2022-10-11T14:44:22.765Z,54.52
2022-10-11T14:46:54.590Z,53.96
2022-10-11T14:49:30.579Z,53.81
2022-10-11T14:51:59.162Z,54.48
2022-10-11T14:54:28.172Z,54.51
2022-10-11T14:56:58.348Z,54.48
2022-10-11T14:59:31.641Z,54.23
2022-10-11T15:01:58.862Z,53.54
2022-10-11T15:04:27.796Z,54.25
2022-10-11T15:06:57.717Z,53.80
2022-10-11T15:09:29.081Z,54.08
2022-10-11T15:11:57.045Z,53.80
2022-10-11T15:14:25.190Z,54.76
2022-10-11T15:16:52.680Z,54.76
2022-10-11T15:19:25.670Z,55.13
2022-10-11T15:21:53.172Z,55.12
2022-10-11T15:24:20.239Z,55.32
2022-10-11T15:26:48.357Z,55.47
2022-10-11T15:29:17.911Z,55.27
2022-10-11T15:31:45.058Z,55.16
2022-10-11T15:34:12.374Z,55.22
2022-10-11T15:36:39.391Z,55.93
2022-10-11T15:39:27.019Z,56.35
2022-10-11T15:41:54.460Z,56.99
2022-10-11T15:44:21.400Z,57.74
2022-10-11T15:46:48.442Z,57.90
2022-10-11T15:49:15.854Z,58.04
2022-10-11T15:51:43.214Z,57.89
2022-10-11T15:54:10.178Z,58.32
2022-10-11T15:56:37.159Z,58.41
2022-10-11T15:59:04.647Z,59.12
2022-10-11T16:01:32.096Z,59.04
2022-10-11T16:03:59.151Z,59.24
2022-10-11T16:06:26.302Z,59.44
2022-10-11T16:08:53.698Z,59.49
2022-10-11T16:11:20.678Z,59.76
2022-10-11T16:13:49.121Z,60.24
2022-10-11T16:16:16.105Z,59.98
2022-10-11T16:18:43.180Z,60.43
2022-10-11T16:21:15.638Z,60.59
2022-10-11T16:23:42.822Z,60.92
2022-10-11T16:26:14.813Z,60.34
2022-10-11T16:28:42.413Z,60.57
2022-10-11T16:31:13.596Z,61.18
2022-10-11T16:33:45.882Z,60.64
2022-10-11T16:36:32.624Z,61.01
2022-10-11T16:39:02.788Z,60.99
2022-10-11T16:41:29.868Z,60.86
2022-10-11T16:43:56.898Z,60.58
2022-10-11T16:46:24.542Z,61.31
2022-10-11T16:48:56.033Z,61.11
2022-10-11T16:51:24.249Z,61.37
2022-10-11T16:53:53.442Z,60.96
2022-10-11T16:56:22.803Z,61.43
2022-10-11T16:58:53.169Z,61.32
2022-10-11T17:01:20.980Z,61.38
2022-10-11T17:03:50.172Z,61.75
2022-10-11T17:06:17.958Z,61.89
2022-10-11T17:08:45.139Z,62.16
2022-10-11T17:11:12.378Z,62.11
2022-10-11T17:13:39.286Z,62.31
2022-10-11T17:16:07.235Z,62.11
2022-10-11T17:18:34.421Z,62.03
2022-10-11T17:21:05.501Z,62.28
2022-10-11T17:23:35.062Z,61.88
2022-10-11T17:26:10.774Z,61.72
2022-10-11T17:28:38.906Z,62.12
2022-10-11T17:31:07.996Z,62.77
2022-10-11T17:33:35.234Z,63.12
2022-10-11T17:36:16.094Z,63.23
2022-10-11T17:38:44.280Z,63.14
2022-10-11T17:41:11.977Z,63.54
2022-10-11T17:43:39.108Z,63.11
2022-10-11T17:46:08.932Z,64.05
2022-10-11T17:48:39.191Z,64.17
2022-10-11T17:51:12.841Z,63.85
2022-10-11T17:53:40.937Z,64.67
2022-10-11T17:56:14.386Z,64.95
2022-10-11T17:58:43.045Z,64.91
2022-10-11T18:01:15.416Z,65.21
2022-10-11T18:03:44.060Z,65.70
2022-10-11T18:06:13.513Z,65.75
2022-10-11T18:08:41.220Z,65.41
2022-10-11T18:11:15.445Z,66.03
2022-10-11T18:13:46.121Z,66.25
2022-10-11T18:16:16.897Z,65.52
2022-10-11T18:18:44.485Z,66.24
2022-10-11T18:21:12.605Z,66.44
2022-10-11T18:23:41.004Z,65.72
2022-10-11T18:26:23.524Z,65.79
2022-10-11T18:28:55.265Z,65.93
2022-10-11T18:31:29.242Z,65.91
2022-10-11T18:33:56.193Z,65.98
2022-10-11T18:36:27.695Z,66.41
2022-10-11T18:38:59.898Z,66.88
2022-10-11T18:41:31.924Z,66.44
2022-10-11T18:44:03.953Z,66.47
2022-10-11T18:46:32.628Z,66.32
2022-10-11T18:49:02.223Z,66.52
2022-10-11T18:51:36.609Z,66.91
2022-10-11T18:54:04.931Z,67.01
2022-10-11T18:56:34.711Z,66.81
2022-10-11T18:59:01.977Z,67.01
2022-10-11T19:01:33.660Z,66.95
2022-10-11T19:04:03.668Z,66.81
2022-10-11T19:06:38.078Z,66.92
2022-10-11T19:09:10.154Z,66.69
2022-10-11T19:11:38.281Z,67.57
2022-10-11T19:14:14.551Z,67.24
2022-10-11T19:16:46.289Z,66.99
2022-10-11T19:19:13.725Z,67.85
2022-10-11T19:21:41.060Z,67.92
2022-10-11T19:24:08.942Z,67.85
2022-10-11T19:26:39.555Z,68.21
2022-10-11T19:29:16.596Z,68.48
2022-10-11T19:32:04.137Z,68.96
2022-10-11T19:34:32.677Z,68.63
2022-10-11T19:37:01.267Z,69.36
2022-10-11T19:39:29.606Z,69.08
2022-10-11T19:41:56.814Z,69.40
2022-10-11T19:44:23.874Z,69.33
2022-10-11T19:46:52.416Z,69.56
2022-10-11T19:49:26.000Z,69.76
2022-10-11T19:51:55.175Z,69.47
2022-10-11T19:54:22.363Z,70.17
2022-10-11T19:56:49.561Z,70.38
2022-10-11T19:59:17.455Z,70.20
2022-10-11T20:01:51.929Z,70.13
2022-10-11T20:07:08.303Z,70.68
2022-10-11T20:09:35.171Z,70.91
2022-10-11T20:12:02.226Z,71.30
2022-10-11T20:14:29.493Z,71.29
2022-10-11T20:16:56.440Z,71.05
2022-10-11T20:19:30.572Z,70.94
2022-10-11T20:22:00.632Z,70.57
2022-10-11T20:24:32.442Z,70.93
2022-10-11T20:27:02.349Z,70.95
2022-10-11T20:29:29.301Z,70.92
2022-10-11T20:31:56.491Z,71.46
2022-10-11T20:34:23.569Z,71.49
2022-10-11T20:36:50.970Z,71.73
2022-10-11T20:39:18.113Z,71.76
2022-10-11T20:41:45.146Z,71.43
2022-10-11T20:44:15.793Z,71.63
2022-10-11T20:46:42.779Z,71.63
2022-10-11T20:49:11.447Z,72.02
2022-10-11T20:51:41.543Z,72.08
2022-10-11T20:54:09.285Z,71.88
2022-10-11T20:56:37.756Z,72.06
2022-10-11T20:59:06.351Z,71.77
2022-10-11T21:01:40.373Z,72.28
2022-10-11T21:04:09.765Z,72.25
2022-10-11T21:06:36.794Z,71.98
2022-10-11T21:09:04.374Z,71.50
2022-10-11T21:11:33.580Z,72.24
2022-10-11T21:14:04.679Z,71.90
2022-10-11T21:16:33.603Z,72.19
2022-10-11T21:19:02.185Z,72.23
2022-10-11T21:21:30.983Z,71.67
2022-10-11T21:24:00.812Z,72.36
2022-10-11T21:26:30.185Z,72.06
2022-10-11T21:28:59.389Z,72.67
2022-10-11T21:31:31.025Z,72.64
2022-10-11T21:34:01.222Z,72.55
2022-10-11T21:36:28.900Z,72.82
2022-10-11T21:38:56.553Z,73.09
2022-10-11T21:41:25.937Z,73.12
2022-10-11T21:43:53.254Z,72.65
2022-10-11T21:47:01.095Z,72.85
2022-10-11T21:49:20.208Z,72.98
2022-10-11T21:51:47.157Z,72.83
2022-10-11T21:54:14.517Z,72.58
2022-10-11T21:56:41.952Z,72.60
2022-10-11T21:59:12.379Z,72.65
2022-10-11T22:01:41.096Z,72.86
2022-10-11T22:04:08.557Z,72.92
2022-10-11T22:06:36.699Z,72.90
2022-10-11T22:09:05.538Z,73.03
2022-10-11T22:11:32.739Z,72.89
2022-10-11T22:14:00.082Z,72.95
2022-10-11T22:16:27.063Z,72.90
2022-10-11T22:18:54.382Z,72.92
2022-10-11T22:21:24.901Z,72.75
2022-10-11T22:23:53.784Z,73.08
2022-10-11T22:26:25.049Z,72.47
2022-10-11T22:28:53.450Z,72.82
2022-10-11T22:31:21.993Z,72.46
2022-10-11T22:33:53.887Z,72.93
2022-10-11T22:36:21.563Z,72.34
2022-10-11T22:38:48.908Z,72.27
2022-10-11T22:41:15.993Z,72.75
2022-10-11T22:43:43.218Z,72.70
2022-10-11T22:46:10.774Z,72.77
2022-10-11T22:48:37.967Z,72.57
2022-10-11T22:51:05.402Z,72.79
2022-10-11T22:53:32.516Z,72.70
2022-10-11T22:55:59.739Z,72.72
2022-10-11T22:58:27.495Z,72.69
2022-10-11T23:00:54.657Z,72.36
2022-10-11T23:03:21.597Z,72.89
2022-10-11T23:05:56.979Z,73.34
2022-10-11T23:08:24.594Z,73.37
2022-10-11T23:10:52.167Z,73.44
2022-10-11T23:13:19.833Z,74.03
2022-10-11T23:15:46.879Z,73.64
2022-10-11T23:18:16.684Z,73.33
2022-10-11T23:20:44.261Z,73.48
2022-10-11T23:23:11.334Z,73.07
2022-10-11T23:25:38.495Z,73.82
2022-10-11T23:28:05.552Z,73.75
2022-10-11T23:30:32.759Z,73.77
2022-10-11T23:32:59.679Z,73.93
2022-10-11T23:35:26.912Z,74.13
2022-10-11T23:37:54.776Z,73.70
2022-10-11T23:40:21.875Z,74.08
2022-10-11T23:42:48.873Z,74.03
2022-10-11T23:45:15.918Z,74.31
2022-10-11T23:47:42.837Z,74.17
2022-10-11T23:50:10.290Z,74.05
2022-10-11T23:52:37.164Z,74.08
2022-10-11T23:55:04.422Z,74.05
2022-10-11T23:57:31.436Z,74.09
2022-10-11T23:59:58.286Z,74.15
